To NAV CANADA Home Page Login to a new session Search on AWWS site Feedback and Comments Disclaimer Vers la page française équivalente Tips FAQ What's new on the site To the Forecasts and Observations / NOTAM section To "File a Flight Plan" website Publications and other links Update of the User's profile FIC Telephone Numbers My Weather Data Folder Route Weather Data Regional Weather Data Local Weather Data To the Forecasts and Observations / NOTAM section
Request Generated 12/04/2016 at 22:21:09 UTC . Weather information available at that time is displayed.

METAR/TAF

THOMPSON/MB    

METAR CYTH 042200Z VRB02KT 5SM -SN BKN008 OVC030 M03/M04 A2964 RMK
ST6SC2 CIG RAG SLP056=
METAR CYTH 042100Z 14003KT 080V170 6SM -SN BKN009 BKN030 OVC050
M03/M04 A2964 RMK SC6SC1SC1 SLP056=
METAR CYTH 042000Z 14003KT 090V180 6SM -SN BKN009 OVC055 M03/M04
A2965 RMK SC6SC2 CIG RAG /S01/ SLP060=

TAF AMD CYTH 042022Z 0420/0507 14005KT 6SM -SN SCT008 OVC060 TEMPO
0420/0507 3SM -SN BKN008 OVC060 PROB30 0420/0507 2SM -SN OVC006
RMK NXT FCST BY 050100Z=
Your time UTC time
Weather data provided by Environment Canada and NAV CANADA